Weather observations for the past three days for
Blakely, Early County Airport
Metric (Imperial)
Date Time (edt) Wind (kph) Vis. (km) Weather Sky Cond. Temperature (ºC) Relative Humidity Wind Chill (°C) Heat Index (°C) Pressure Precipitation (cm)
Air Dwpt 6 hour altimeter (cm) sea level (mb) 1 hr 3 hr 6 hr
Max. Min.
03 00:35 Calm 16.09 Fair CLR 23 22 94% 76.25 0.0
03 00:15 Calm 16.09 Fair CLR 23 22 94% 76.25 0.0
02 23:55 Calm 16.09 Fair CLR 23 22 94% 76.25 0.0
02 23:35 Calm 16.09 Fair CLR 24 22 89% 24 76.25 0.0
02 23:15 Calm 16.09 Fair CLR 24 22 89% 24 76.25 0.0
02 22:55 Calm 16.09 Fair CLR 25 22 83% 26 76.25 0.0
02 22:35 Calm 16.09 Fair CLR 25 22 83% 26 76.25 0.0
02 22:15 Calm 16.09 Fair CLR 25 23 89% 26 76.25 0.0
02 21:55 Calm 16.09 Fair CLR 25 23 89% 26 76.25 0.0
02 21:35 Calm 16.09 Fair CLR 26 23 84% 28 76.25 0.0
02 21:15 Calm 16.09 Fair CLR 26 23 84% 28 76.23 0.0
02 20:55 Calm 16.09 Fair CLR 26 23 84% 28 76.23 0.0
02 20:35 Calm 16.09 Fair CLR 27 23 79% 30 76.2 0.0
02 20:15 Calm 16.09 Fair CLR 27 23 79% 30 76.2 0.0
02 19:55 Calm 16.09 Fair CLR 28 24 79% 32 76.2 0.0
02 19:35 Calm 16.09 Fair CLR 30 24 70% 35 76.2 0.0
02 19:15 Calm 16.09 Fair CLR 31 23 62% 35 76.17 0.0
02 18:55 Calm 16.09 Fair CLR 32 21 52% 35 76.17 0.0
02 18:35 E 7 16.09 Fair CLR 32 21 52% 35 76.2 0.0
02 18:15 E 7 16.09 Fair CLR 32 21 52% 35 76.17 0.0
02 17:55 E 7 16.09 Fair CLR 32 21 52% 35 76.2 0.0
02 17:35 E 7 16.09 Fair CLR 33 21 49% 36 76.2 0.0
02 17:15 E 6 16.09 Fair CLR 32 21 52% 35 76.2 0.0
02 16:55 Calm 16.09 Fair CLR 32 21 52% 35 76.23 0.0
02 16:35 Calm 16.09 Fair CLR 32 21 52% 35 76.23 0.0
02 16:15 E 6 11.27 Fair CLR 32 21 52% 35 76.25 0.0
02 15:55 Calm 11.27 Fair CLR 32 21 52% 35 76.28 0.0
02 15:35 E 7 16.09 Fair CLR 32 20 49% 34 76.28 0.0
02 15:15 E 9 16.09 Fair CLR 32 20 49% 34 76.3 0.0
02 14:55 Calm 16.09 Fair CLR 33 18 41% 34 76.33 0.0
02 14:35 E 7 16.09 Partly Cloudy SCT050 33 18 41% 34 76.33 0.0
02 14:15 NE 15 16.09 Partly Cloudy SCT050 33 20 46% 35 76.33 0.0
02 13:55 E 7 16.09 Fair CLR 33 18 41% 34 76.35 0.0
02 13:35 NE 9 11.27 Fair CLR 33 20 46% 35 76.38 0.0
02 13:15 Calm 16.09 Partly Cloudy SCT045 32 20 49% 34 76.4 0.0
02 12:55 E 7 16.09 Partly Cloudy SCT045 SCT050 33 21 49% 36 76.4 0.0
02 12:35 NE 6 16.09 Fair CLR 33 20 46% 35 76.43 0.0
02 12:15 Calm 16.09 Fair CLR 32 21 52% 35 76.45 0.0
02 11:55 E 7 11.27 Fair CLR 31 21 55% 34 76.45 0.0
02 11:35 E 9 16.09 Fair CLR 31 21 55% 34 76.45 0.0
02 11:15 NE 9 16.09 Fair CLR 31 21 55% 34 76.45 0.0
02 10:55 NE 9 16.09 Fair CLR 31 21 55% 34 76.45 0.0
02 10:35 Calm 16.09 Fair CLR 30 22 62% 33 76.45 0.0
02 10:15 Calm 16.09 Fair CLR 28 22 70% 31 76.45 0.0
02 09:55 Calm 16.09 Fair CLR 28 23 74% 31 76.45 0.0
02 09:35 Calm 16.09 Fair CLR 27 22 74% 29 76.45 0.0
02 09:15 Calm 16.09 Fair CLR 25 22 83% 26 76.45 0.0
02 08:55 Calm 11.27 Fair CLR 25 22 83% 26 76.45 0.0
02 08:35 Calm 11.27 Fair CLR 23 21 89% 76.45 0.0
02 08:15 Calm 16.09 Fair CLR 21 20 94% 76.43 0.0
02 07:55 Calm 16.09 Fair CLR 21 20 94% 76.43 0.0
02 07:35 Calm 16.09 Fair CLR 21 20 94% 76.4 0.0
02 07:15 Calm 16.09 Fair CLR 20 19 94% 76.4 0.0
02 06:55 Calm 16.09 Fair CLR 21 20 94% 76.4 0.0
02 06:35 Calm 16.09 Fair CLR 21 20 94% 76.38 0.0
02 06:15 Calm 16.09 Fair CLR 21 20 94% 76.38 0.0
02 05:55 Calm 16.09 Fair CLR 21 20 94% 76.35 0.0
02 05:35 Calm 16.09 Fair CLR 21 20 94% 76.35 0.0
02 05:15 Calm 16.09 Fair CLR 21 20 94% 76.35 0.0
02 04:55 Calm 16.09 Fair CLR 21 20 94% 76.33 0.0
02 04:35 Calm 16.09 Fair CLR 21 20 94% 76.33 0.0
02 04:15 Calm 16.09 Fair CLR 22 20 88% 76.3 0.0
02 03:55 Calm 16.09 Fair CLR 21 20 94% 76.3 0.0
02 03:35 Calm 16.09 Fair CLR 21 20 94% 76.33 0.0
02 03:15 Calm 16.09 Fair CLR 22 20 88% 76.33 0.0
02 02:55 Calm 16.09 Fair CLR 22 21 94% 76.33 0.0
02 02:35 Calm 16.09 Fair CLR 22 21 94% 76.33 0.0
02 02:15 Calm 16.09 Fair CLR 22 21 94% 76.33 0.0
02 01:55 Calm 16.09 Fair CLR 22 21 94% 76.35 0.0
02 01:35 Calm 16.09 Fair CLR 23 21 89% 76.35 0.0
02 01:15 Calm 16.09 Fair CLR 24 22 89% 24 76.35 0.0
02 00:55 Calm 16.09 Fair CLR 25 22 83% 26 76.35 0.0
02 00:35 Calm 16.09 Fair CLR 25 22 83% 26 76.35 0.0
02 00:15 Calm 16.09 Fair CLR 25 22 83% 26 76.35 0.0
01 23:55 Calm 16.09 Fair CLR 24 22 89% 24 76.35 0.0
01 23:35 Calm 16.09 Fair CLR 24 22 89% 24 76.35 0.0
01 23:15 Calm 16.09 Fair CLR 25 22 83% 26 76.35 0.0
01 22:55 Calm 16.09 Fair CLR 25 22 83% 26 76.35 0.0
01 22:35 Calm 16.09 Fair CLR 25 23 89% 26 76.33 0.0
01 22:15 Calm 16.09 Fair CLR 25 23 89% 26 76.33 0.0
01 21:55 Calm 16.09 Fair CLR 26 23 84% 28 76.33 0.0
01 21:35 Calm 16.09 Fair CLR 26 23 84% 28 76.3 0.0
01 21:15 Calm 16.09 Fair CLR 26 23 84% 28 76.28 0.0
01 20:55 Calm 16.09 Fair CLR 26 23 84% 28 76.25 0.0
01 20:35 Calm 16.09 Fair CLR 27 23 79% 30 76.25 0.0
01 20:15 Calm 16.09 Fair CLR 28 23 74% 31 76.25 0.0
01 19:55 Calm 16.09 Fair CLR 30 23 66% 34 76.25 0.0
01 19:35 Calm 16.09 Fair CLR 31 22 59% 35 76.25 0.0
01 19:15 Calm 16.09 Fair CLR 32 21 52% 35 76.25 0.0
01 18:55 E 6 16.09 Fair CLR 32 21 52% 35 76.25 0.0
01 18:35 E 9 16.09 Fair CLR 33 20 46% 35 76.25 0.0
01 18:15 E 11 16.09 Fair CLR 33 20 46% 35 76.25 0.0
01 17:55 E 6 16.09 Fair CLR 33 20 46% 35 76.25 0.0
01 17:35 E 11 16.09 Fair CLR 33 20 46% 35 76.25 0.0
01 17:15 NE 13 16.09 Fair CLR 33 20 46% 35 76.25 0.0
01 16:55 E 13 16.09 Fair CLR 33 20 46% 35 76.25 0.0
01 16:35 NE 13 16.09 Fair CLR 33 20 46% 35 76.25 0.0
01 16:15 NE 9 16.09 Fair CLR 33 20 46% 35 76.25 0.0
01 15:55 Calm 16.09 Fair CLR 33 20 46% 35 76.28 0.0
01 15:35 E 11 16.09 Partly Cloudy SCT050 33 20 46% 35 76.3 0.0
01 15:15 E 9 16.09 Fair CLR 33 20 46% 35 76.33 0.0
01 14:55 E 6 16.09 Fair CLR 33 19 44% 35 76.35 0.0
01 14:35 E 13 16.09 Fair CLR 33 20 46% 35 76.38 0.0
01 14:15 E 13 16.09 Fair CLR 32 20 49% 34 76.38 0.0
01 13:55 E 15 11.27 Fair CLR 33 20 46% 35 76.4 0.0
01 13:35 E 13 11.27 Fair CLR 32 20 49% 34 76.43 0.0
01 13:15 E 15 16.09 Fair CLR 32 20 49% 34 76.45 0.0
01 12:55 NE 15 16.09 Fair CLR 31 20 52% 33 76.45 0.0
01 12:35 E 13 16.09 Fair CLR 32 20 49% 34 76.45 0.0
01 12:15 NE 13 16.09 Fair CLR 31 21 55% 34 76.45 0.0
01 11:55 NE 15 16.09 Fair CLR 31 21 55% 34 76.45 0.0
01 11:35 NE 11 16.09 Fair CLR 31 21 55% 34 76.45 0.0
01 11:15 NE 9 16.09 Fair CLR 30 21 59% 33 76.48 0.0
01 10:55 N 7 16.09 Fair CLR 30 22 62% 33 76.45 0.0
01 10:35 Calm 16.09 Fair CLR 29 23 70% 33 76.45 0.0
01 10:15 NE 6 16.09 Fair CLR 28 23 74% 31 76.45 0.0
01 09:55 E 7 16.09 Fair CLR 27 23 79% 30 76.45 0.0
01 09:35 Calm 11.27 Fair CLR 26 22 79% 28 76.45 0.0
01 09:15 E 6 16.09 Fair CLR 26 22 79% 28 76.45 0.0
01 08:55 Calm 16.09 Fair CLR 25 22 83% 26 76.45 0.0
01 08:35 NE 7 16.09 Fair CLR 23 22 94% 76.45 0.0
01 08:15 Calm 16.09 Fair CLR 22 21 94% 76.45 0.0
01 07:55 Calm 16.09 Fair CLR 21 20 94% 76.43 0.0
01 07:35 Calm 16.09 Fair CLR 21 20 94% 76.4 0.0
01 07:15 Calm 16.09 Fair CLR 21 20 94% 76.4 0.0
01 06:55 Calm 16.09 Fair CLR 21 20 94% 76.38 0.0
01 06:35 Calm 16.09 Fair CLR 21 20 94% 76.38 0.0
01 06:15 Calm 16.09 Fair CLR 21 20 94% 76.38 0.0
01 05:55 Calm 16.09 Fair CLR 21 20 94% 76.35 0.0
01 05:35 Calm 16.09 Fair CLR 21 20 94% 76.33 0.0
01 05:15 Calm 16.09 Fair CLR 21 20 94% 76.33 0.0
01 04:55 Calm 16.09 Fair CLR 21 20 94% 76.33 0.0
01 04:35 Calm 16.09 Fair CLR 21 20 94% 76.33 0.0
01 04:15 Calm 16.09 Fair CLR 22 21 94% 76.33 0.0
01 03:55 Calm 16.09 Fair CLR 22 21 94% 76.33 0.0
01 03:35 Calm 16.09 Fair CLR 22 21 94% 76.33 0.0
01 03:15 Calm 16.09 Fair CLR 22 21 94% 76.33 0.0
01 02:55 Calm 16.09 Fair CLR 22 21 94% 76.35 0.0
01 02:35 Calm 16.09 Fair CLR 22 21 94% 76.35 0.0
01 02:15 Calm 16.09 Fair CLR 22 21 94% 76.38 0.0
01 01:55 Calm 16.09 Fair CLR 22 21 94% 76.38 0.0
01 01:35 Calm 16.09 Fair CLR 22 21 94% 76.38 0.0
01 01:15 Calm 16.09 Fair CLR 23 21 89% 76.4 0.0
01 00:55 Calm 16.09 Fair CLR 23 22 94% 76.4 0.0
01 00:35 Calm 16.09 Fair CLR 23 22 94% 76.4 0.0
01 00:15 Calm 16.09 Fair CLR 23 22 94% 76.38 0.0
31 23:55 Calm 16.09 Fair CLR 23 22 94% 76.4 0.0
31 23:35 Calm 16.09 Fair CLR 23 22 94% 76.38 0.0
31 23:15 Calm 16.09 Fair CLR 24 22 89% 24 76.38 0.0
31 22:55 Calm 16.09 Fair CLR 24 22 89% 24 76.4 0.0
31 22:35 Calm 16.09 Fair CLR 25 22 83% 26 76.4 0.0
31 22:15 Calm 16.09 Fair CLR 25 22 83% 26 76.38 0.0
31 21:55 Calm 16.09 Fair CLR 25 23 89% 26 76.35 0.0
31 21:35 Calm 16.09 Fair CLR 25 22 83% 26 76.33 0.0
31 21:15 Calm 16.09 Fair CLR 26 23 84% 28 76.33 0.0
31 20:55 Calm 16.09 Fair CLR 26 23 84% 28 76.3 0.0
31 20:35 Calm 16.09 Fair CLR 27 23 79% 30 76.3 0.0
31 20:15 Calm 16.09 Fair CLR 28 23 74% 31 76.28 0.0
31 19:55 Calm 16.09 Fair CLR 30 23 66% 34 76.28 0.0
31 19:35 Calm 16.09 Fair CLR 31 22 59% 35 76.25 0.0
31 19:15 E 6 16.09 Fair CLR 31 21 55% 34 76.28 0.0
31 18:55 E 7 16.09 Fair CLR 32 21 52% 35 76.28 0.0
31 18:35 E 7 16.09 Fair CLR 32 20 49% 34 76.28 0.0
31 18:15 E 7 16.09 Fair CLR 32 20 49% 34 76.3 0.0
31 17:55 E 9 16.09 Fair CLR 32 20 49% 34 76.3 0.0
31 17:35 NE 9 16.09 Partly Cloudy SCT046 32 21 52% 35 76.3 0.0
31 17:15 E 7 16.09 Partly Cloudy SCT046 32 20 49% 34 76.3 0.0
31 16:55 NE 15 16.09 Fair CLR 32 20 49% 34 76.33 0.0
31 16:35 E 7 16.09 Fair CLR 32 21 52% 35 76.33 0.0
31 16:15 NE 17 16.09 Partly Cloudy SCT045 32 21 52% 35 76.33 0.0
31 15:55 NE 13 16.09 Fair CLR 32 21 52% 35 76.35 0.0
31 15:35 E 11 16.09 Fair CLR 32 20 49% 34 76.38 0.0
31 15:15 NE 6 16.09 Fair CLR 32 20 49% 34 76.38 0.0
31 14:55 NE 15 16.09 Partly Cloudy SCT042 32 20 49% 34 76.4 0.0
31 14:35 NE 15 16.09 Partly Cloudy SCT042 31 20 52% 33 76.4 0.0
31 14:15 Calm 16.09 Fair CLR 31 20 52% 33 76.43 0.0
31 13:55 E 11 16.09 Partly Cloudy SCT037 31 20 52% 33 76.45 0.0
31 13:35 E 6 16.09 Partly Cloudy SCT036 31 20 52% 33 76.45 0.0
31 13:15 E 11 16.09 Partly Cloudy SCT032 30 21 59% 33 76.48 0.0
31 12:55 NE 13 16.09 Fair CLR 30 21 59% 33 76.48 0.0
31 12:35 E 7 16.09 Fair CLR 30 21 59% 33 76.5 0.0
31 12:15 NE 7 16.09 Partly Cloudy SCT023 29 22 66% 32 76.53 0.0
31 11:55 E 6 16.09 Partly Cloudy SCT021 28 22 70% 31 76.53 0.0
31 11:35 NE 9 16.09 Fair CLR 28 22 70% 31 76.53 0.0
31 11:15 E 9 16.09 Partly Cloudy SCT015 28 22 70% 31 76.53 0.0
31 10:55 NE 7 16.09 Partly Cloudy SCT015 27 22 74% 29 76.5 0.0
31 10:35 E 9 16.09 Partly Cloudy SCT013 27 22 74% 29 76.56 0.0
31 10:15 NE 6 16.09 Partly Cloudy SCT011 26 22 79% 28 76.56 0.0
31 09:55 NE 7 16.09 Partly Cloudy SCT009 26 22 79% 28 76.53 0.0
31 09:35 E 6 16.09 Fair CLR 25 22 83% 26 76.5 0.0
31 09:15 NE 7 16.09 Partly Cloudy SCT007 24 22 89% 24 76.53 0.0
31 08:55 E 9 16.09 Fair CLR 23 21 89% 76.53 0.0
31 08:35 NE 9 16.09 Fair CLR 22 21 94% 76.5 0.0
31 08:15 NE 7 16.09 Fair CLR 21 20 94% 76.48 0.0
31 07:55 NE 6 16.09 Fair CLR 21 20 94% 76.45 0.0
31 07:35 NE 9 16.09 Fair CLR 21 20 94% 76.45 0.0
31 07:15 NE 6 16.09 Fair CLR 21 20 94% 76.43 0.0
31 06:55 NE 6 16.09 Fair CLR 21 20 94% 76.43 0.0
31 06:35 Calm 16.09 Fair CLR 21 20 94% 76.4 0.0
31 06:15 Calm 16.09 Fair CLR 21 20 94% 76.4 0.0
31 05:55 Calm 16.09 Fair CLR 21 20 94% 76.38 0.0
31 05:35 Calm 16.09 Fair CLR 21 20 94% 76.38 0.0
31 05:15 Calm 16.09 Fair CLR 21 20 94% 76.38 0.0
31 04:55 Calm 16.09 Fair CLR 21 20 94% 76.38 0.0
31 04:35 Calm 16.09 Fair CLR 21 20 94% 76.35 0.0
31 04:15 Calm 16.09 Fair CLR 21 20 94% 76.38 0.0
31 03:55 Calm 16.09 Fair CLR 21 20 94% 76.38 0.0
31 03:35 Calm 16.09 Fair CLR 21 20 94% 76.38 0.0
31 03:15 Calm 16.09 Fair CLR 22 20 88% 76.38 0.0
31 02:55 Calm 16.09 Fair CLR 22 21 94% 76.38 0.0
31 02:35 Calm 16.09 Fair CLR 22 20 88% 76.38 0.0
31 02:15 Calm 16.09 Fair CLR 22 21 94% 76.38 0.0
31 01:55 Calm 16.09 Fair CLR 22 20 88% 76.38 0.0
31 01:35 Calm 16.09 Fair CLR 22 21 94% 76.38 0.0
31 01:15 Calm 16.09 Fair CLR 22 21 94% 76.38 0.0
31 00:55 Calm 16.09 Fair CLR 22 21 94% 76.38 0.0
Date Time (edt) Wind (kph) Vis. (km) Weather Sky Cond. Air Dwpt Max. Min. Relative Humidity Wind Chill (°C) Heat Index (°C) altimeter (cm) sea level (mb) 1 hr 3 hr 6 hr
6 hour
Temperature (ºC) Pressure Precipitation (cm)